Point Arena, CA (95468)

11:15 PM PDT on September 15, 2014 (GMT -0700)
Irish Beach | Change Station
CLOSE
Current Station
Personal Weather Station
Location: Manchester, CA
Elevation: 276 ft
Nearby Weather Stations

Elev 276 ft 39.02 °N, 123.69 °W | Updated 4 minutes ago

Clear
Clear
57.2 °F
Feels Like 57.2 °F
N
3.0
Wind Variable Wind from West

Today
High -- | Low -- °F
--% Chance of Precip.
Yesterday
High -- | Low -- °F
Precip. -- in
6:56 AM 7:22 PM
Waning Gibbous, 48% visible
Pressure 29.92 in
Visibility 10.0 miles
Clouds Clear
Dew Point 52 °F
Humidity 83%
Rainfall 0.00 in
Snow Depth 0 in , 2 in , 0 in
UV 0 out of 12
Pollen 6.90 out of 12
Air Quality Not available.
Flu Activity Not available.
METAR KUKI 160556Z AUTO 29003KT 10SM CLR 17/09 A2994 RMK AO2 SLP130 T01670089 10289 20167 51020

More Conditions Fewer Conditions

Pressure 29.92 in
Visibility 10.0 miles
Clouds Clear
Dew Point 52 °F
Humidity 83%
Rainfall 0.00 in
Snow Depth 0 in , 2 in , 0 in
UV 0 out of 12
Pollen 6.90 out of 12
Air Quality Not available.
Flu Activity Not available.
METAR KUKI 160556Z AUTO 29003KT 10SM CLR 17/09 A2994 RMK AO2 SLP130 T01670089 10289 20167 51020

More Conditions Fewer Conditions

10-Day Weather Forecast

Almanac

Astronomy

Sep. 15, 2014 Rise Set
Actual Time 6:56 AM PDT 7:22 PM PDT
Civil Twilight 6:29 AM PDT 7:49 PM PDT
Nautical Twilight 5:57 AM PDT 8:20 PM PDT
Astronomical Twilight 5:25 AM PDT 8:52 PM PDT
Moon No Moon Rise 1:57 PM PDT (9/15)
Length of Visible Light 13h 20m
Length of Day
12h 26m
Tomorrow will be 2m 30s shorter.
Waning Gibbous, 48% of the Moon is Illuminated
Sep 16
Waning Gibbous
Sep 24
New
Oct 1
First Quarter
Oct 8
Full
Oct 15
Last Quarter

Yesterday's Extremes

State Highs State Lows

Community

WunderPhotos

Upload Photos

1,753,702 photos uploaded!

Nearby

Snow Depth

Station Depth Elevation
Leavitt Meadows 0 in 7200 ft
CSS Lab 2 in 6900 ft
Monitor Pass 0 in 8350 ft
Echo Peak 0 in 7800 ft
Blue Lakes 0 in 8000 ft

Earthquake Activity

City Distance Mag. Time & Date
Covelo, California 65 miles 3.3 1:17 PM PDT
2014-09-14
Cobb, California 46 miles 2.7 11:07 AM PDT
2014-09-14
Minimum magnitude displayed is 2.5.

Coastal Water Temperatures

Place Temperature
Point Reyes, CA 64.9 °F
Arena Cove, CA 61.0 °F
San Francisco, CA 64.0 °F
Richmond, CA 69.1 °F

Nearby Weather Stations